createdAt,value
2023-01-23T00:01:04.867Z,1.40
2023-01-23T00:03:34.315Z,1.30
2023-01-23T00:06:04.065Z,1.30
2023-01-23T00:08:32.283Z,1.30
2023-01-23T00:11:00.109Z,1.40
2023-01-23T00:13:27.878Z,1.40
2023-01-23T00:15:55.680Z,1.40
2023-01-23T00:18:23.501Z,1.40
2023-01-23T00:20:52.619Z,1.30
2023-01-23T00:23:20.504Z,1.30
2023-01-23T00:25:48.261Z,1.40
2023-01-23T00:28:16.037Z,1.40
2023-01-23T00:30:43.805Z,1.40
2023-01-23T00:33:11.601Z,1.40
2023-01-23T00:35:39.354Z,1.40
2023-01-23T00:38:08.502Z,1.50
2023-01-23T00:40:36.303Z,1.50
2023-01-23T00:43:04.098Z,1.60
2023-01-23T00:45:31.882Z,1.80
2023-01-23T00:47:59.671Z,1.70
2023-01-23T00:50:27.524Z,1.60
2023-01-23T00:52:55.301Z,1.50
2023-01-23T00:55:24.463Z,1.40
2023-01-23T00:57:52.433Z,1.40
2023-01-23T01:00:20.858Z,1.30
2023-01-23T01:02:49.194Z,1.40
2023-01-23T01:05:18.138Z,1.30
2023-01-23T01:07:46.030Z,1.30
2023-01-23T01:10:14.409Z,1.40
2023-01-23T01:12:43.626Z,1.40
2023-01-23T01:15:12.378Z,1.20
2023-01-23T01:17:40.648Z,1.20
2023-01-23T01:20:10.143Z,1.20
2023-01-23T01:22:37.930Z,1.10
2023-01-23T01:25:06.368Z,1.00
2023-01-23T01:27:34.156Z,1.00
2023-01-23T01:30:03.527Z,1.00
2023-01-23T01:32:31.338Z,1.00
2023-01-23T01:34:59.135Z,1.00
2023-01-23T01:37:26.930Z,1.00
2023-01-23T01:39:54.710Z,1.10
2023-01-23T01:42:22.511Z,1.00
2023-01-23T01:44:56.175Z,1.10
2023-01-23T01:47:25.613Z,1.30
2023-01-23T01:49:59.424Z,1.20
2023-01-23T01:52:28.343Z,1.30
2023-01-23T01:54:59.442Z,1.30
2023-01-23T01:57:30.469Z,1.30
2023-01-23T02:00:01.159Z,1.20
2023-01-23T02:02:33.399Z,1.10
2023-01-23T02:05:05.057Z,1.00
2023-01-23T02:07:36.254Z,1.30
2023-01-23T02:10:06.388Z,1.20
2023-01-23T02:12:35.296Z,1.10
2023-01-23T02:15:03.731Z,1.00
2023-01-23T02:17:33.422Z,1.00
2023-01-23T02:20:09.053Z,1.10
2023-01-23T02:22:46.963Z,1.10
2023-01-23T02:25:23.553Z,1.00
2023-01-23T02:27:52.770Z,1.00
2023-01-23T02:30:21.385Z,1.00
2023-01-23T02:32:49.363Z,1.10
2023-01-23T02:35:25.424Z,1.00
2023-01-23T02:37:57.286Z,1.00
2023-01-23T02:40:32.344Z,1.00
2023-01-23T02:43:02.031Z,0.90
2023-01-23T02:45:30.748Z,0.90
2023-01-23T02:47:58.855Z,0.90
2023-01-23T02:50:26.635Z,0.90
2023-01-23T02:52:55.175Z,0.80
2023-01-23T02:55:23.117Z,0.70
2023-01-23T02:57:50.936Z,0.80
2023-01-23T03:00:20.694Z,0.90
2023-01-23T03:02:49.519Z,1.00
2023-01-23T03:05:17.793Z,1.00
2023-01-23T03:07:45.873Z,1.00
2023-01-23T03:10:13.726Z,1.00
2023-01-23T03:12:43.416Z,0.90
2023-01-23T03:15:12.292Z,1.00
2023-01-23T03:17:41.416Z,1.00
2023-01-23T03:20:10.319Z,1.00
2023-01-23T03:22:38.095Z,1.00
2023-01-23T03:25:06.680Z,1.00
2023-01-23T03:27:36.589Z,1.10
2023-01-23T03:30:16.820Z,1.00
2023-01-23T03:32:47.455Z,1.20
2023-01-23T03:35:17.936Z,1.30
2023-01-23T03:37:46.305Z,1.30
2023-01-23T03:40:35.518Z,1.30
2023-01-23T03:43:03.336Z,1.30
2023-01-23T03:45:31.188Z,1.30
2023-01-23T03:48:00.726Z,1.20
2023-01-23T03:50:28.542Z,1.10
2023-01-23T03:52:56.327Z,1.10
2023-01-23T03:55:24.117Z,1.30
2023-01-23T03:57:51.897Z,1.40
2023-01-23T04:00:20.799Z,1.40
2023-01-23T04:02:48.753Z,1.30
2023-01-23T04:05:18.019Z,1.30
2023-01-23T04:07:45.862Z,1.30
2023-01-23T04:10:13.641Z,1.30
2023-01-23T04:12:43.649Z,1.40
2023-01-23T04:15:12.712Z,1.30
2023-01-23T04:17:42.263Z,1.50
2023-01-23T04:20:12.369Z,1.40
2023-01-23T04:22:41.517Z,1.40
2023-01-23T04:25:10.105Z,1.20
2023-01-23T04:27:37.895Z,1.20
2023-01-23T04:30:06.346Z,1.20
2023-01-23T04:32:34.118Z,1.20
2023-01-23T04:35:01.921Z,1.30
2023-01-23T04:37:29.738Z,1.20
2023-01-23T04:39:58.836Z,1.20
2023-01-23T04:42:26.600Z,1.20
2023-01-23T04:44:54.443Z,1.20
2023-01-23T04:47:22.295Z,1.20
2023-01-23T04:49:50.073Z,1.30
2023-01-23T04:52:17.899Z,1.30
2023-01-23T04:54:45.741Z,1.30
2023-01-23T04:57:14.858Z,1.20
2023-01-23T04:59:42.685Z,1.10
2023-01-23T05:02:10.594Z,1.10
2023-01-23T05:04:38.456Z,1.10
2023-01-23T05:07:06.783Z,1.30
2023-01-23T05:09:34.631Z,1.20
2023-01-23T05:12:02.401Z,1.10
2023-01-23T05:14:31.542Z,1.00
2023-01-23T05:16:59.364Z,1.00
2023-01-23T05:19:27.224Z,1.00
2023-01-23T05:21:55.022Z,1.10
2023-01-23T05:24:22.845Z,1.10
2023-01-23T05:26:50.649Z,1.10
2023-01-23T05:29:18.534Z,1.20
2023-01-23T05:31:47.707Z,1.20
2023-01-23T05:34:15.523Z,1.20
2023-01-23T05:36:43.359Z,1.30
2023-01-23T05:39:11.181Z,1.50
2023-01-23T05:41:38.968Z,1.40
2023-01-23T05:44:06.960Z,1.40
2023-01-23T05:46:34.916Z,1.50
2023-01-23T05:49:04.432Z,1.50
2023-01-23T05:51:33.851Z,1.50
2023-01-23T05:54:02.761Z,1.60
2023-01-23T05:56:30.574Z,1.60
2023-01-23T05:58:58.336Z,1.50
2023-01-23T06:01:26.329Z,1.40
2023-01-23T06:03:54.244Z,1.50
2023-01-23T06:06:23.420Z,1.50
2023-01-23T06:08:51.209Z,1.40
2023-01-23T06:11:19.058Z,1.50
2023-01-23T06:13:46.855Z,1.50
2023-01-23T06:16:14.694Z,1.50
2023-01-23T06:18:42.532Z,1.40
2023-01-23T06:21:10.353Z,1.30
2023-01-23T06:23:39.495Z,1.40
2023-01-23T06:26:07.303Z,1.60
2023-01-23T06:28:35.232Z,1.60
2023-01-23T06:31:04.212Z,1.50
2023-01-23T06:33:32.591Z,1.50
2023-01-23T06:36:01.060Z,1.40
2023-01-23T06:38:29.791Z,1.40
2023-01-23T06:40:59.091Z,1.40
2023-01-23T06:43:27.425Z,1.50
2023-01-23T06:45:55.320Z,1.40
2023-01-23T06:48:23.318Z,1.40
2023-01-23T06:50:51.364Z,1.50
2023-01-23T06:53:20.521Z,1.50
2023-01-23T06:55:48.385Z,1.60
2023-01-23T06:58:17.551Z,1.60
2023-01-23T07:00:45.567Z,1.80
2023-01-23T07:03:15.042Z,1.80
2023-01-23T07:05:43.433Z,1.80
2023-01-23T07:08:11.744Z,1.80
2023-01-23T07:10:40.090Z,1.70
2023-01-23T07:13:09.068Z,1.80
2023-01-23T07:15:41.025Z,1.80
2023-01-23T07:18:10.141Z,1.90
2023-01-23T07:20:38.323Z,1.80
2023-01-23T07:23:06.164Z,1.80
2023-01-23T07:25:34.001Z,1.90
2023-01-23T07:28:01.824Z,1.90
2023-01-23T07:30:30.392Z,1.90
2023-01-23T07:32:59.693Z,1.80
2023-01-23T07:35:27.968Z,1.90
2023-01-23T07:37:55.776Z,1.90
2023-01-23T07:40:23.957Z,2.00
2023-01-23T07:42:51.792Z,2.10
2023-01-23T07:45:19.748Z,2.10
2023-01-23T07:47:47.569Z,2.00
2023-01-23T07:50:16.767Z,1.90
2023-01-23T07:52:44.552Z,2.00
2023-01-23T07:55:12.357Z,2.00
2023-01-23T07:57:40.246Z,2.00
2023-01-23T08:00:10.301Z,2.00
2023-01-23T08:02:38.694Z,2.10
2023-01-23T08:05:07.617Z,2.10
2023-01-23T08:07:36.757Z,2.10
2023-01-23T08:10:04.857Z,2.00
2023-01-23T08:12:32.648Z,2.10
2023-01-23T08:15:00.487Z,2.10
2023-01-23T08:17:28.266Z,2.10
2023-01-23T08:19:56.048Z,2.10
2023-01-23T08:22:23.890Z,2.10
2023-01-23T08:24:53.053Z,2.10
2023-01-23T08:27:20.937Z,2.10
2023-01-23T08:29:48.802Z,2.10
2023-01-23T08:32:16.625Z,2.30
2023-01-23T08:34:44.466Z,2.20
2023-01-23T08:37:12.273Z,2.30
2023-01-23T08:39:40.088Z,2.40
2023-01-23T08:42:09.211Z,2.30
2023-01-23T08:44:36.979Z,2.20
2023-01-23T08:47:05.338Z,2.20
2023-01-23T08:49:33.178Z,2.30
2023-01-23T08:52:01.002Z,2.30
2023-01-23T08:54:28.870Z,2.30
2023-01-23T08:56:56.696Z,2.30
2023-01-23T08:59:26.300Z,2.30
2023-01-23T09:01:54.177Z,2.40
2023-01-23T09:04:21.965Z,2.40
2023-01-23T09:06:49.788Z,2.50
2023-01-23T09:09:18.122Z,2.60
2023-01-23T09:11:46.703Z,2.60
2023-01-23T09:14:14.531Z,2.60
2023-01-23T09:16:43.765Z,2.50
2023-01-23T09:19:12.655Z,2.60
2023-01-23T09:21:40.683Z,2.60
2023-01-23T09:24:08.813Z,2.60
2023-01-23T09:26:36.669Z,2.60
2023-01-23T09:29:05.017Z,2.60
2023-01-23T09:31:32.994Z,2.60
2023-01-23T09:34:03.363Z,2.60
2023-01-23T09:36:42.460Z,2.60
2023-01-23T09:39:11.219Z,2.60
2023-01-23T09:41:40.625Z,2.70
2023-01-23T09:44:13.801Z,2.70
2023-01-23T09:46:46.945Z,2.50
2023-01-23T09:49:25.260Z,2.40
2023-01-23T09:51:59.724Z,2.40
2023-01-23T09:54:38.101Z,2.40
2023-01-23T09:57:16.086Z,2.40
2023-01-23T10:00:00.492Z,2.40
2023-01-23T10:02:29.393Z,2.40
2023-01-23T10:05:02.471Z,2.40
2023-01-23T10:08:02.986Z,2.60
2023-01-23T10:10:53.719Z,2.60
2023-01-23T10:13:29.962Z,2.60
2023-01-23T10:16:19.668Z,2.60
2023-01-23T10:18:54.437Z,2.60
2023-01-23T10:21:30.432Z,2.70
2023-01-23T10:24:03.968Z,2.60
2023-01-23T10:26:35.085Z,2.70
2023-01-23T10:29:11.637Z,2.70
2023-01-23T10:31:43.391Z,2.70
2023-01-23T10:34:19.279Z,2.60
2023-01-23T10:37:01.377Z,2.70
2023-01-23T10:39:33.895Z,2.70
2023-01-23T10:42:02.908Z,2.70
2023-01-23T10:44:31.032Z,2.80
2023-01-23T10:47:03.602Z,2.90
2023-01-23T10:49:35.114Z,3.00
2023-01-23T10:52:04.999Z,3.10
2023-01-23T10:54:46.531Z,3.10
2023-01-23T10:57:24.198Z,3.10
2023-01-23T10:59:56.741Z,3.10
2023-01-23T11:02:29.267Z,3.20
2023-01-23T11:04:57.196Z,3.30
2023-01-23T11:07:28.124Z,3.20
2023-01-23T11:09:58.646Z,3.40
2023-01-23T11:12:28.951Z,3.30
2023-01-23T11:15:21.995Z,3.30
2023-01-23T11:17:51.041Z,3.30
2023-01-23T11:20:28.989Z,3.30
2023-01-23T11:23:06.866Z,3.30
2023-01-23T11:25:39.320Z,3.40
2023-01-23T11:28:23.579Z,3.40
2023-01-23T11:31:11.617Z,3.30
2023-01-23T11:33:47.772Z,3.40
2023-01-23T11:36:34.877Z,3.30
2023-01-23T11:39:16.812Z,3.30
2023-01-23T11:41:46.323Z,3.40
2023-01-23T11:44:19.335Z,3.50
2023-01-23T11:47:28.960Z,3.50
2023-01-23T11:50:10.802Z,3.50
2023-01-23T11:52:50.020Z,3.60
2023-01-23T11:55:53.052Z,3.50
2023-01-23T11:58:49.392Z,3.60
2023-01-23T12:01:23.160Z,3.60
2023-01-23T12:04:25.028Z,3.70
2023-01-23T12:07:06.405Z,3.60
2023-01-23T12:09:42.174Z,3.60
2023-01-23T12:12:21.415Z,3.50
2023-01-23T12:15:01.594Z,3.50
2023-01-23T12:17:42.882Z,3.60
2023-01-23T12:20:34.061Z,3.50
2023-01-23T12:23:27.194Z,3.50
2023-01-23T12:26:04.542Z,3.40
2023-01-23T12:28:57.501Z,3.50
2023-01-23T12:31:40.986Z,3.50
2023-01-23T12:34:34.613Z,3.60
2023-01-23T12:37:30.724Z,3.50
2023-01-23T12:40:03.632Z,3.50
2023-01-23T12:42:37.474Z,3.40
2023-01-23T12:45:16.501Z,3.50
2023-01-23T12:47:52.757Z,3.60
2023-01-23T12:50:24.294Z,3.60
2023-01-23T12:52:58.887Z,3.60
2023-01-23T12:55:36.214Z,3.70
2023-01-23T12:58:09.833Z,3.60
2023-01-23T13:00:55.239Z,3.50
2023-01-23T13:03:55.267Z,3.60
2023-01-23T13:06:48.392Z,3.50
2023-01-23T13:09:26.773Z,3.50
2023-01-23T13:12:04.960Z,3.60
2023-01-23T13:17:39.234Z,3.60
2023-01-23T13:20:49.260Z,3.60
2023-01-23T13:23:25.924Z,3.60
2023-01-23T13:26:31.784Z,3.60
2023-01-23T13:29:02.531Z,3.70
2023-01-23T13:31:41.213Z,3.80
2023-01-23T13:34:41.878Z,4.00
2023-01-23T13:37:51.422Z,3.90
2023-01-23T13:40:22.799Z,4.00
2023-01-23T13:42:50.787Z,4.00
2023-01-23T13:45:27.875Z,4.00
2023-01-23T14:21:25.648Z,3.90
2023-01-23T14:23:58.221Z,3.80
2023-01-23T14:26:28.388Z,3.80
2023-01-23T14:28:57.993Z,3.90
2023-01-23T14:31:28.462Z,3.80
2023-01-23T14:34:09.627Z,3.90
2023-01-23T14:36:39.403Z,3.80
2023-01-23T14:39:08.626Z,3.80
2023-01-23T14:41:41.855Z,3.80
2023-01-23T14:44:18.458Z,3.90
2023-01-23T14:46:46.759Z,3.90
2023-01-23T14:49:19.109Z,3.90
2023-01-23T14:51:59.420Z,3.90
2023-01-23T14:54:32.858Z,4.00
2023-01-23T14:57:04.422Z,3.90
2023-01-23T14:59:35.573Z,3.90
2023-01-23T15:02:13.003Z,3.90
2023-01-23T15:05:08.233Z,4.00
2023-01-23T15:07:36.361Z,4.00
2023-01-23T15:10:06.112Z,4.00
2023-01-23T15:12:33.941Z,4.00
2023-01-23T15:15:01.871Z,4.00
2023-01-23T15:17:29.756Z,4.00
2023-01-23T15:19:59.372Z,4.00
2023-01-23T15:22:28.891Z,4.20
2023-01-23T15:24:57.051Z,4.10
2023-01-23T15:27:28.827Z,3.90
2023-01-23T15:30:29.666Z,4.00
2023-01-23T15:32:57.754Z,3.90
2023-01-23T15:35:30.440Z,3.80
2023-01-23T15:37:59.712Z,3.90
2023-01-23T15:40:29.563Z,3.80
2023-01-23T15:43:08.340Z,3.70
2023-01-23T15:45:36.184Z,3.70
2023-01-23T15:48:04.296Z,3.70
2023-01-23T15:50:32.215Z,3.60
2023-01-23T15:53:00.039Z,3.60
2023-01-23T15:55:29.411Z,3.60
2023-01-23T15:57:57.726Z,3.60
2023-01-23T16:00:28.942Z,3.50
2023-01-23T16:02:58.095Z,3.40
2023-01-23T16:05:28.156Z,3.40
2023-01-23T16:07:57.461Z,3.40
2023-01-23T16:10:28.674Z,3.30
2023-01-23T16:12:58.022Z,3.30
2023-01-23T16:15:29.276Z,3.40
2023-01-23T16:17:57.813Z,3.40
2023-01-23T16:20:29.660Z,3.40
2023-01-23T16:23:13.887Z,3.40
2023-01-23T16:25:45.672Z,3.30
2023-01-23T16:28:14.859Z,3.30
2023-01-23T16:30:44.579Z,3.30
2023-01-23T16:33:12.841Z,3.30
2023-01-23T16:35:41.347Z,3.30
2023-01-23T16:38:15.702Z,3.30
2023-01-23T16:40:43.798Z,3.30
2023-01-23T16:43:11.646Z,3.20
2023-01-23T16:45:39.426Z,3.20
2023-01-23T16:48:12.938Z,3.10
2023-01-23T16:50:46.944Z,3.10
2023-01-23T16:53:26.489Z,3.10
2023-01-23T16:55:55.470Z,3.20
2023-01-23T16:58:26.556Z,3.10
2023-01-23T17:01:00.967Z,3.10
2023-01-23T17:03:34.580Z,3.10
2023-01-23T17:06:02.481Z,3.00
2023-01-23T17:08:30.326Z,3.00
2023-01-23T17:11:01.272Z,3.00
2023-01-23T17:13:33.468Z,3.00
2023-01-23T17:16:03.293Z,3.10
2023-01-23T17:18:35.449Z,3.00
2023-01-23T17:21:05.691Z,3.10
2023-01-23T17:23:34.490Z,3.10
2023-01-23T17:26:02.767Z,3.10
2023-01-23T17:28:30.643Z,3.10
2023-01-23T17:31:01.273Z,3.10
2023-01-23T17:33:33.706Z,3.10
2023-01-23T17:36:03.285Z,3.00
2023-01-23T17:38:31.866Z,3.00
2023-01-23T17:40:59.715Z,3.00
2023-01-23T17:43:27.526Z,3.00
2023-01-23T17:45:55.415Z,2.90
2023-01-23T17:48:28.066Z,2.90
2023-01-23T17:50:57.406Z,2.90
2023-01-23T17:53:27.679Z,2.80
2023-01-23T17:55:55.513Z,2.80
2023-01-23T17:58:23.522Z,2.90
2023-01-23T18:00:53.830Z,2.80
2023-01-23T18:03:24.593Z,2.80
2023-01-23T18:05:52.574Z,2.90
2023-01-23T18:08:22.795Z,2.90
2023-01-23T18:10:53.930Z,2.80
2023-01-23T18:13:29.034Z,2.90
2023-01-23T18:16:05.423Z,2.90
2023-01-23T18:18:35.501Z,2.90
2023-01-23T18:21:04.900Z,2.90
2023-01-23T18:23:37.087Z,2.90
2023-01-23T18:26:18.955Z,2.80
2023-01-23T18:28:52.651Z,2.90
2023-01-23T18:31:28.161Z,2.80
2023-01-23T18:34:09.576Z,2.90
2023-01-23T18:36:48.323Z,2.90
2023-01-23T18:39:39.883Z,2.90
2023-01-23T18:42:20.235Z,2.90
2023-01-23T18:44:55.631Z,2.90
2023-01-23T18:47:25.368Z,2.80
2023-01-23T18:49:54.044Z,2.80
2023-01-23T18:52:26.077Z,2.80
2023-01-23T18:55:03.601Z,2.90
2023-01-23T18:57:47.883Z,2.90
2023-01-23T19:00:20.098Z,2.90
2023-01-23T19:02:52.167Z,2.80
2023-01-23T19:05:30.303Z,2.80
2023-01-23T19:07:59.848Z,2.80
2023-01-23T19:10:40.106Z,2.80
2023-01-23T19:13:20.772Z,2.80
2023-01-23T19:15:58.661Z,2.80
2023-01-23T19:18:48.808Z,2.90
2023-01-23T19:21:23.015Z,2.90
2023-01-23T19:23:57.199Z,2.90
2023-01-23T19:26:29.602Z,2.90
2023-01-23T19:28:59.747Z,2.90
2023-01-23T19:31:29.547Z,2.80
2023-01-23T19:33:58.805Z,2.80
2023-01-23T19:36:27.727Z,2.80
2023-01-23T19:39:00.901Z,2.80
2023-01-23T19:41:39.640Z,2.90
2023-01-23T19:44:13.157Z,2.80
2023-01-23T19:46:41.215Z,2.80
2023-01-23T19:49:09.320Z,2.70
2023-01-23T19:51:37.734Z,2.80
2023-01-23T19:54:09.296Z,2.70
2023-01-23T19:56:39.400Z,2.70
2023-01-23T19:59:07.553Z,2.80
2023-01-23T20:01:38.636Z,2.70
2023-01-23T20:04:07.750Z,2.80
2023-01-23T20:06:38.811Z,2.70
2023-01-23T20:09:06.760Z,2.70
2023-01-23T20:11:34.926Z,2.80
2023-01-23T20:14:04.660Z,2.70
2023-01-23T20:16:32.527Z,2.70
2023-01-23T20:19:00.370Z,2.80
2023-01-23T20:21:28.667Z,2.80
2023-01-23T20:23:56.580Z,2.80
2023-01-23T20:26:24.560Z,2.70
2023-01-23T20:28:53.788Z,2.70
2023-01-23T20:31:23.662Z,2.70
2023-01-23T20:33:51.735Z,2.70
2023-01-23T20:36:19.586Z,2.70
2023-01-23T20:38:47.493Z,2.70
2023-01-23T20:41:18.650Z,2.70
2023-01-23T20:43:47.324Z,2.80
2023-01-23T20:46:16.427Z,2.80
2023-01-23T20:48:46.024Z,2.80
2023-01-23T20:51:15.153Z,2.90
2023-01-23T20:53:42.799Z,2.90
2023-01-23T20:56:12.074Z,2.90
2023-01-23T20:58:59.231Z,2.80
2023-01-23T21:01:29.692Z,2.80
2023-01-23T21:03:58.933Z,2.70
2023-01-23T21:06:26.719Z,2.70
2023-01-23T21:08:58.456Z,2.70
2023-01-23T21:11:28.258Z,2.70
2023-01-23T21:13:56.070Z,2.70
2023-01-23T21:16:23.889Z,2.70
2023-01-23T21:18:53.319Z,2.70
2023-01-23T21:21:24.228Z,2.60
2023-01-23T21:23:52.439Z,2.80
2023-01-23T21:26:22.281Z,2.80
2023-01-23T21:28:51.424Z,2.80
2023-01-23T21:31:21.322Z,2.70
2023-01-23T21:33:49.985Z,2.80
2023-01-23T21:36:20.369Z,2.80
2023-01-23T21:38:51.439Z,2.80
2023-01-23T21:41:19.744Z,2.70
2023-01-23T21:43:47.831Z,2.80
2023-01-23T21:46:15.631Z,2.80
2023-01-23T21:48:44.029Z,2.80
2023-01-23T21:51:13.316Z,2.80
2023-01-23T21:53:43.103Z,2.90
2023-01-23T21:56:13.622Z,2.90
2023-01-23T21:58:42.301Z,2.90
2023-01-23T22:01:31.189Z,2.90
2023-01-23T22:03:59.181Z,2.80
2023-01-23T22:06:27.173Z,2.90
2023-01-23T22:08:55.225Z,2.90
2023-01-23T22:11:24.609Z,2.80
2023-01-23T22:13:52.535Z,2.90
2023-01-23T22:16:22.872Z,2.90
2023-01-23T22:18:56.217Z,2.90
2023-01-23T22:21:24.013Z,2.90
2023-01-23T22:23:51.988Z,2.90
2023-01-23T22:26:19.856Z,3.00
2023-01-23T22:28:48.983Z,3.00
2023-01-23T22:31:18.480Z,2.90
2023-01-23T22:33:48.023Z,2.80
2023-01-23T22:36:17.711Z,2.80
2023-01-23T22:38:45.701Z,2.90
2023-01-23T22:41:15.176Z,2.90
2023-01-23T22:43:43.009Z,3.00
2023-01-23T22:46:14.892Z,2.90
2023-01-23T22:48:42.965Z,2.90
2023-01-23T22:51:16.000Z,2.90
2023-01-23T22:53:44.066Z,3.00
2023-01-23T22:56:12.840Z,3.00
2023-01-23T22:58:40.878Z,3.10
2023-01-23T23:01:08.803Z,3.00
2023-01-23T23:03:38.038Z,2.80
2023-01-23T23:06:08.344Z,2.80
2023-01-23T23:08:36.471Z,2.90
2023-01-23T23:11:06.445Z,2.80
2023-01-23T23:13:35.891Z,2.70
2023-01-23T23:16:04.781Z,2.70
2023-01-23T23:18:32.718Z,2.70
2023-01-23T23:21:02.810Z,2.70
2023-01-23T23:23:30.625Z,2.80
2023-01-23T23:25:58.743Z,2.80
2023-01-23T23:28:28.191Z,2.70
2023-01-23T23:30:55.977Z,2.80
2023-01-23T23:33:24.157Z,2.80
2023-01-23T23:35:51.986Z,2.70
2023-01-23T23:38:21.442Z,2.70
2023-01-23T23:40:56.111Z,2.70
2023-01-23T23:43:24.318Z,2.70
2023-01-23T23:45:52.875Z,2.70
2023-01-23T23:48:22.032Z,2.70
2023-01-23T23:50:49.986Z,2.70
2023-01-23T23:53:18.326Z,2.70
2023-01-23T23:55:48.046Z,2.70
2023-01-23T23:58:16.360Z,2.80
